Terminal Aerodrome Forecast
Issued by NWS Louisville, KY

Home | Current Version | Previous Version | Text Only | Print | Product List | Glossary On
Versions: 1 2 3 4 5 6 7 8 9 10 11 12 13 14 15 16
491
FTUS43 KLMK 170521
TAFSDF
TAF
KSDF 170521Z 1706/1812 26007KT P6SM OVC050
     FM170700 26007KT P6SM SKC
     FM171500 27010G18KT P6SM SKC
     FM180000 VRB04KT P6SM BKN050 BKN200=

USA.gov is the U.S. government's official web portal to all federal, state and local government web resources and services.